sensor_id;sensor_type;location;lat;lon;timestamp;P1;durP1;ratioP1;P2;durP2;ratioP2
75818;SDS011;64453;51.944;9.796;2023-08-17T00:00:58;2.27;;;2.07;;
75818;SDS011;64453;51.944;9.796;2023-08-17T00:03:25;2.27;;;2.07;;
75818;SDS011;64453;51.944;9.796;2023-08-17T00:05:52;2.23;;;2.00;;
75818;SDS011;64453;51.944;9.796;2023-08-17T00:08:18;2.63;;;2.10;;
75818;SDS011;64453;51.944;9.796;2023-08-17T00:10:45;2.53;;;2.33;;
75818;SDS011;64453;51.944;9.796;2023-08-17T00:13:14;5.30;;;2.43;;
75818;SDS011;64453;51.944;9.796;2023-08-17T00:15:41;2.10;;;2.00;;
75818;SDS011;64453;51.944;9.796;2023-08-17T00:18:10;4.27;;;2.63;;
75818;SDS011;64453;51.944;9.796;2023-08-17T00:20:37;4.30;;;2.30;;
75818;SDS011;64453;51.944;9.796;2023-08-17T00:23:04;3.20;;;2.80;;
75818;SDS011;64453;51.944;9.796;2023-08-17T00:25:30;4.90;;;2.83;;
75818;SDS011;64453;51.944;9.796;2023-08-17T00:27:57;2.73;;;2.40;;
75818;SDS011;64453;51.944;9.796;2023-08-17T00:30:26;3.03;;;2.80;;
75818;SDS011;64453;51.944;9.796;2023-08-17T00:32:53;3.50;;;2.77;;
75818;SDS011;64453;51.944;9.796;2023-08-17T00:35:19;7.50;;;2.70;;
75818;SDS011;64453;51.944;9.796;2023-08-17T00:37:46;3.00;;;2.50;;
75818;SDS011;64453;51.944;9.796;2023-08-17T00:40:13;2.57;;;2.43;;
75818;SDS011;64453;51.944;9.796;2023-08-17T00:42:40;3.93;;;2.40;;
75818;SDS011;64453;51.944;9.796;2023-08-17T00:45:08;6.33;;;3.80;;
75818;SDS011;64453;51.944;9.796;2023-08-17T00:47:37;3.30;;;3.10;;
75818;SDS011;64453;51.944;9.796;2023-08-17T00:50:05;3.63;;;3.07;;
75818;SDS011;64453;51.944;9.796;2023-08-17T00:52:33;3.80;;;3.03;;
75818;SDS011;64453;51.944;9.796;2023-08-17T00:55:00;3.10;;;2.83;;
75818;SDS011;64453;51.944;9.796;2023-08-17T00:57:29;3.00;;;2.80;;
75818;SDS011;64453;51.944;9.796;2023-08-17T00:59:58;3.30;;;3.00;;
75818;SDS011;64453;51.944;9.796;2023-08-17T01:02:25;3.50;;;3.20;;
75818;SDS011;64453;51.944;9.796;2023-08-17T01:04:54;5.27;;;2.70;;
75818;SDS011;64453;51.944;9.796;2023-08-17T01:07:21;5.90;;;3.10;;
75818;SDS011;64453;51.944;9.796;2023-08-17T01:09:48;4.30;;;3.90;;
75818;SDS011;64453;51.944;9.796;2023-08-17T01:12:17;3.33;;;3.03;;
75818;SDS011;64453;51.944;9.796;2023-08-17T01:14:54;7.70;;;3.37;;
75818;SDS011;64453;51.944;9.796;2023-08-17T01:17:29;3.53;;;3.00;;
75818;SDS011;64453;51.944;9.796;2023-08-17T01:20:01;3.67;;;3.07;;
75818;SDS011;64453;51.944;9.796;2023-08-17T01:22:30;3.53;;;3.20;;
75818;SDS011;64453;51.944;9.796;2023-08-17T01:25:00;3.33;;;3.13;;
75818;SDS011;64453;51.944;9.796;2023-08-17T01:27:33;4.00;;;3.23;;
75818;SDS011;64453;51.944;9.796;2023-08-17T01:30:05;3.50;;;3.20;;
75818;SDS011;64453;51.944;9.796;2023-08-17T01:32:36;3.60;;;3.30;;
75818;SDS011;64453;51.944;9.796;2023-08-17T01:35:09;4.00;;;3.67;;
75818;SDS011;64453;51.944;9.796;2023-08-17T01:37:43;5.83;;;3.17;;
75818;SDS011;64453;51.944;9.796;2023-08-17T01:40:12;3.67;;;3.33;;
75818;SDS011;64453;51.944;9.796;2023-08-17T01:42:40;4.30;;;3.77;;
75818;SDS011;64453;51.944;9.796;2023-08-17T01:45:09;3.93;;;3.53;;
75818;SDS011;64453;51.944;9.796;2023-08-17T01:47:37;4.03;;;3.53;;
75818;SDS011;64453;51.944;9.796;2023-08-17T01:50:04;3.87;;;3.57;;
75818;SDS011;64453;51.944;9.796;2023-08-17T01:52:32;6.37;;;3.47;;
75818;SDS011;64453;51.944;9.796;2023-08-17T01:55:00;3.40;;;3.10;;
75818;SDS011;64453;51.944;9.796;2023-08-17T01:57:28;3.57;;;3.27;;
75818;SDS011;64453;51.944;9.796;2023-08-17T01:59:55;4.93;;;4.53;;
75818;SDS011;64453;51.944;9.796;2023-08-17T02:02:22;3.77;;;3.47;;
75818;SDS011;64453;51.944;9.796;2023-08-17T02:04:49;3.33;;;3.13;;
75818;SDS011;64453;51.944;9.796;2023-08-17T02:07:16;4.03;;;3.73;;
75818;SDS011;64453;51.944;9.796;2023-08-17T02:09:43;3.33;;;3.13;;
75818;SDS011;64453;51.944;9.796;2023-08-17T02:12:10;3.20;;;3.00;;
75818;SDS011;64453;51.944;9.796;2023-08-17T02:14:38;3.63;;;3.40;;
75818;SDS011;64453;51.944;9.796;2023-08-17T02:17:05;3.90;;;3.53;;
75818;SDS011;64453;51.944;9.796;2023-08-17T02:19:33;4.13;;;3.93;;
75818;SDS011;64453;51.944;9.796;2023-08-17T02:22:00;4.80;;;4.00;;
75818;SDS011;64453;51.944;9.796;2023-08-17T02:24:28;4.50;;;4.10;;
75818;SDS011;64453;51.944;9.796;2023-08-17T02:26:54;3.60;;;3.30;;
75818;SDS011;64453;51.944;9.796;2023-08-17T02:29:21;3.87;;;3.57;;
75818;SDS011;64453;51.944;9.796;2023-08-17T02:31:50;3.90;;;3.60;;
75818;SDS011;64453;51.944;9.796;2023-08-17T02:34:17;4.63;;;4.23;;
75818;SDS011;64453;51.944;9.796;2023-08-17T02:36:44;3.83;;;3.53;;
75818;SDS011;64453;51.944;9.796;2023-08-17T02:39:11;3.53;;;3.23;;
75818;SDS011;64453;51.944;9.796;2023-08-17T02:41:37;3.77;;;3.40;;
75818;SDS011;64453;51.944;9.796;2023-08-17T02:44:04;3.83;;;3.50;;
75818;SDS011;64453;51.944;9.796;2023-08-17T02:46:31;4.00;;;3.67;;
75818;SDS011;64453;51.944;9.796;2023-08-17T02:49:00;4.30;;;3.90;;
75818;SDS011;64453;51.944;9.796;2023-08-17T02:51:27;3.93;;;3.63;;
75818;SDS011;64453;51.944;9.796;2023-08-17T02:53:54;4.40;;;4.00;;
75818;SDS011;64453;51.944;9.796;2023-08-17T02:56:36;4.57;;;4.27;;
75818;SDS011;64453;51.944;9.796;2023-08-17T02:59:03;5.93;;;4.03;;
75818;SDS011;64453;51.944;9.796;2023-08-17T03:01:30;3.70;;;3.50;;
75818;SDS011;64453;51.944;9.796;2023-08-17T03:03:58;5.20;;;3.80;;
75818;SDS011;64453;51.944;9.796;2023-08-17T03:06:25;3.47;;;3.20;;
75818;SDS011;64453;51.944;9.796;2023-08-17T03:08:52;4.30;;;3.90;;
75818;SDS011;64453;51.944;9.796;2023-08-17T03:11:19;4.50;;;4.20;;
75818;SDS011;64453;51.944;9.796;2023-08-17T03:13:48;4.33;;;3.93;;
75818;SDS011;64453;51.944;9.796;2023-08-17T03:16:15;3.50;;;3.30;;
75818;SDS011;64453;51.944;9.796;2023-08-17T03:18:43;4.27;;;3.97;;
75818;SDS011;64453;51.944;9.796;2023-08-17T03:21:10;4.43;;;4.03;;
75818;SDS011;64453;51.944;9.796;2023-08-17T03:23:38;4.83;;;4.13;;
75818;SDS011;64453;51.944;9.796;2023-08-17T03:26:05;4.77;;;4.00;;
75818;SDS011;64453;51.944;9.796;2023-08-17T03:28:32;4.53;;;4.13;;
75818;SDS011;64453;51.944;9.796;2023-08-17T03:31:00;4.67;;;4.00;;
75818;SDS011;64453;51.944;9.796;2023-08-17T03:33:29;5.07;;;4.47;;
75818;SDS011;64453;51.944;9.796;2023-08-17T03:35:57;4.50;;;4.30;;
75818;SDS011;64453;51.944;9.796;2023-08-17T03:38:24;5.17;;;4.70;;
75818;SDS011;64453;51.944;9.796;2023-08-17T03:40:51;5.00;;;4.70;;
75818;SDS011;64453;51.944;9.796;2023-08-17T03:43:18;4.37;;;3.90;;
75818;SDS011;64453;51.944;9.796;2023-08-17T03:45:45;4.80;;;4.50;;
75818;SDS011;64453;51.944;9.796;2023-08-17T03:48:13;4.93;;;4.50;;
75818;SDS011;64453;51.944;9.796;2023-08-17T03:50:40;4.33;;;4.03;;
75818;SDS011;64453;51.944;9.796;2023-08-17T03:53:07;4.43;;;4.13;;
75818;SDS011;64453;51.944;9.796;2023-08-17T03:55:34;5.20;;;4.70;;
75818;SDS011;64453;51.944;9.796;2023-08-17T03:58:01;5.70;;;5.20;;
75818;SDS011;64453;51.944;9.796;2023-08-17T04:00:28;5.60;;;4.60;;
75818;SDS011;64453;51.944;9.796;2023-08-17T04:02:55;5.63;;;5.23;;
75818;SDS011;64453;51.944;9.796;2023-08-17T04:05:24;5.20;;;4.80;;
75818;SDS011;64453;51.944;9.796;2023-08-17T04:07:51;4.93;;;4.43;;
75818;SDS011;64453;51.944;9.796;2023-08-17T04:10:18;4.40;;;4.10;;
75818;SDS011;64453;51.944;9.796;2023-08-17T04:12:45;5.13;;;4.80;;
75818;SDS011;64453;51.944;9.796;2023-08-17T04:15:12;5.00;;;4.70;;
75818;SDS011;64453;51.944;9.796;2023-08-17T04:17:39;5.13;;;4.63;;
75818;SDS011;64453;51.944;9.796;2023-08-17T04:20:07;4.93;;;4.63;;
75818;SDS011;64453;51.944;9.796;2023-08-17T04:22:37;5.47;;;5.00;;
75818;SDS011;64453;51.944;9.796;2023-08-17T04:25:05;6.10;;;5.70;;
75818;SDS011;64453;51.944;9.796;2023-08-17T04:27:32;7.23;;;6.60;;
75818;SDS011;64453;51.944;9.796;2023-08-17T04:29:59;6.23;;;5.57;;
75818;SDS011;64453;51.944;9.796;2023-08-17T04:32:27;7.80;;;6.00;;
75818;SDS011;64453;51.944;9.796;2023-08-17T04:34:55;8.53;;;7.67;;
75818;SDS011;64453;51.944;9.796;2023-08-17T04:37:22;7.67;;;6.97;;
75818;SDS011;64453;51.944;9.796;2023-08-17T04:39:50;10.30;;;7.63;;
75818;SDS011;64453;51.944;9.796;2023-08-17T04:42:18;7.23;;;6.63;;
75818;SDS011;64453;51.944;9.796;2023-08-17T04:44:45;8.20;;;7.50;;
75818;SDS011;64453;51.944;9.796;2023-08-17T04:47:12;7.37;;;6.77;;
75818;SDS011;64453;51.944;9.796;2023-08-17T04:49:39;9.37;;;7.57;;
75818;SDS011;64453;51.944;9.796;2023-08-17T04:52:06;9.80;;;8.90;;
75818;SDS011;64453;51.944;9.796;2023-08-17T04:54:33;8.80;;;8.00;;
75818;SDS011;64453;51.944;9.796;2023-08-17T04:57:03;8.63;;;7.83;;
75818;SDS011;64453;51.944;9.796;2023-08-17T04:59:30;9.97;;;9.07;;
75818;SDS011;64453;51.944;9.796;2023-08-17T05:01:57;9.50;;;8.70;;
75818;SDS011;64453;51.944;9.796;2023-08-17T05:04:24;8.83;;;8.03;;
75818;SDS011;64453;51.944;9.796;2023-08-17T05:06:52;8.77;;;8.07;;
75818;SDS011;64453;51.944;9.796;2023-08-17T05:09:19;9.30;;;8.30;;
75818;SDS011;64453;51.944;9.796;2023-08-17T05:11:46;9.87;;;8.97;;
75818;SDS011;64453;51.944;9.796;2023-08-17T05:14:14;9.43;;;8.63;;
75818;SDS011;64453;51.944;9.796;2023-08-17T05:16:41;10.60;;;9.60;;
75818;SDS011;64453;51.944;9.796;2023-08-17T05:19:08;10.40;;;9.47;;
75818;SDS011;64453;51.944;9.796;2023-08-17T05:21:35;9.87;;;8.87;;
75818;SDS011;64453;51.944;9.796;2023-08-17T05:24:05;10.90;;;9.90;;
75818;SDS011;64453;51.944;9.796;2023-08-17T05:26:32;10.43;;;9.53;;
75818;SDS011;64453;51.944;9.796;2023-08-17T05:28:59;9.13;;;8.37;;
75818;SDS011;64453;51.944;9.796;2023-08-17T05:31:28;9.60;;;8.30;;
75818;SDS011;64453;51.944;9.796;2023-08-17T05:33:55;9.47;;;8.67;;
75818;SDS011;64453;51.944;9.796;2023-08-17T05:36:22;10.30;;;9.10;;
75818;SDS011;64453;51.944;9.796;2023-08-17T05:38:49;10.13;;;9.20;;
75818;SDS011;64453;51.944;9.796;2023-08-17T05:41:16;11.03;;;9.80;;
75818;SDS011;64453;51.944;9.796;2023-08-17T05:43:44;9.93;;;9.03;;
75818;SDS011;64453;51.944;9.796;2023-08-17T05:46:11;10.43;;;9.33;;
75818;SDS011;64453;51.944;9.796;2023-08-17T05:48:39;12.07;;;8.80;;
75818;SDS011;64453;51.944;9.796;2023-08-17T05:51:07;10.33;;;9.33;;
75818;SDS011;64453;51.944;9.796;2023-08-17T05:53:34;10.50;;;9.60;;
75818;SDS011;64453;51.944;9.796;2023-08-17T05:56:01;9.67;;;8.67;;
75818;SDS011;64453;51.944;9.796;2023-08-17T05:58:29;10.30;;;9.40;;
75818;SDS011;64453;51.944;9.796;2023-08-17T06:01:03;10.33;;;9.33;;
75818;SDS011;64453;51.944;9.796;2023-08-17T06:03:32;10.40;;;9.40;;
75818;SDS011;64453;51.944;9.796;2023-08-17T06:06:01;10.93;;;9.83;;
75818;SDS011;64453;51.944;9.796;2023-08-17T06:08:28;11.53;;;10.23;;
75818;SDS011;64453;51.944;9.796;2023-08-17T06:10:56;9.90;;;9.03;;
75818;SDS011;64453;51.944;9.796;2023-08-17T06:13:23;11.30;;;10.10;;
75818;SDS011;64453;51.944;9.796;2023-08-17T06:15:50;9.43;;;8.63;;
75818;SDS011;64453;51.944;9.796;2023-08-17T06:18:17;10.40;;;9.50;;
75818;SDS011;64453;51.944;9.796;2023-08-17T06:20:45;10.70;;;9.70;;
75818;SDS011;64453;51.944;9.796;2023-08-17T06:23:14;9.57;;;8.70;;
75818;SDS011;64453;51.944;9.796;2023-08-17T06:25:41;9.57;;;8.77;;
75818;SDS011;64453;51.944;9.796;2023-08-17T06:28:08;9.00;;;8.10;;
75818;SDS011;64453;51.944;9.796;2023-08-17T06:30:35;9.33;;;8.43;;
75818;SDS011;64453;51.944;9.796;2023-08-17T06:33:02;9.23;;;8.33;;
75818;SDS011;64453;51.944;9.796;2023-08-17T06:35:30;9.33;;;8.37;;
75818;SDS011;64453;51.944;9.796;2023-08-17T06:37:57;7.73;;;7.03;;
75818;SDS011;64453;51.944;9.796;2023-08-17T06:40:26;7.93;;;7.23;;
75818;SDS011;64453;51.944;9.796;2023-08-17T06:42:53;8.60;;;6.70;;
75818;SDS011;64453;51.944;9.796;2023-08-17T06:45:20;8.07;;;7.37;;
75818;SDS011;64453;51.944;9.796;2023-08-17T06:47:48;7.73;;;7.03;;
75818;SDS011;64453;51.944;9.796;2023-08-17T06:50:14;8.10;;;7.30;;
75818;SDS011;64453;51.944;9.796;2023-08-17T06:52:42;8.40;;;7.70;;
75818;SDS011;64453;51.944;9.796;2023-08-17T06:55:08;8.00;;;7.30;;
75818;SDS011;64453;51.944;9.796;2023-08-17T06:57:37;7.93;;;7.20;;
75818;SDS011;64453;51.944;9.796;2023-08-17T07:00:05;8.03;;;7.10;;
75818;SDS011;64453;51.944;9.796;2023-08-17T07:02:35;6.83;;;6.27;;
75818;SDS011;64453;51.944;9.796;2023-08-17T07:05:02;6.70;;;6.20;;
75818;SDS011;64453;51.944;9.796;2023-08-17T07:07:30;6.90;;;6.17;;
75818;SDS011;64453;51.944;9.796;2023-08-17T07:09:57;6.53;;;5.93;;
75818;SDS011;64453;51.944;9.796;2023-08-17T07:12:24;8.30;;;6.20;;
75818;SDS011;64453;51.944;9.796;2023-08-17T07:14:53;6.30;;;5.70;;
75818;SDS011;64453;51.944;9.796;2023-08-17T07:17:20;7.30;;;6.20;;
75818;SDS011;64453;51.944;9.796;2023-08-17T07:19:47;11.73;;;6.77;;
75818;SDS011;64453;51.944;9.796;2023-08-17T07:22:14;6.40;;;5.90;;
75818;SDS011;64453;51.944;9.796;2023-08-17T07:24:42;6.63;;;6.10;;
75818;SDS011;64453;51.944;9.796;2023-08-17T07:27:09;6.90;;;6.40;;
75818;SDS011;64453;51.944;9.796;2023-08-17T07:29:36;18.50;;;6.63;;
75818;SDS011;64453;51.944;9.796;2023-08-17T07:32:05;30.20;;;8.70;;
75818;SDS011;64453;51.944;9.796;2023-08-17T07:34:32;6.80;;;6.20;;
75818;SDS011;64453;51.944;9.796;2023-08-17T07:36:59;7.90;;;6.50;;
75818;SDS011;64453;51.944;9.796;2023-08-17T07:39:26;11.98;;;6.50;;
75818;SDS011;64453;51.944;9.796;2023-08-17T07:41:53;8.27;;;6.68;;
75818;SDS011;64453;51.944;9.796;2023-08-17T07:44:20;5.60;;;5.20;;
75818;SDS011;64453;51.944;9.796;2023-08-17T07:46:47;5.80;;;5.30;;
75818;SDS011;64453;51.944;9.796;2023-08-17T07:49:16;4.73;;;4.43;;
75818;SDS011;64453;51.944;9.796;2023-08-17T07:51:43;10.18;;;5.68;;
75818;SDS011;64453;51.944;9.796;2023-08-17T07:54:10;5.23;;;4.53;;
75818;SDS011;64453;51.944;9.796;2023-08-17T07:56:37;5.53;;;5.13;;
75818;SDS011;64453;51.944;9.796;2023-08-17T07:59:04;5.30;;;4.85;;
75818;SDS011;64453;51.944;9.796;2023-08-17T08:01:31;5.07;;;4.67;;
75818;SDS011;64453;51.944;9.796;2023-08-17T08:03:58;4.90;;;4.50;;
75818;SDS011;64453;51.944;9.796;2023-08-17T08:06:27;5.33;;;4.80;;
75818;SDS011;64453;51.944;9.796;2023-08-17T08:08:54;5.20;;;4.80;;
75818;SDS011;64453;51.944;9.796;2023-08-17T08:11:21;5.00;;;4.60;;
75818;SDS011;64453;51.944;9.796;2023-08-17T08:13:48;4.30;;;4.00;;
75818;SDS011;64453;51.944;9.796;2023-08-17T08:16:15;4.53;;;4.13;;
75818;SDS011;64453;51.944;9.796;2023-08-17T08:18:42;4.03;;;3.67;;
75818;SDS011;64453;51.944;9.796;2023-08-17T08:21:09;4.10;;;3.80;;
75818;SDS011;64453;51.944;9.796;2023-08-17T08:23:37;5.80;;;4.30;;
75818;SDS011;64453;51.944;9.796;2023-08-17T08:26:04;4.07;;;3.77;;
75818;SDS011;64453;51.944;9.796;2023-08-17T08:28:31;4.13;;;3.83;;
75818;SDS011;64453;51.944;9.796;2023-08-17T08:31:00;4.80;;;4.07;;
75818;SDS011;64453;51.944;9.796;2023-08-17T08:33:28;5.93;;;3.80;;
75818;SDS011;64453;51.944;9.796;2023-08-17T08:35:56;7.50;;;3.80;;
75818;SDS011;64453;51.944;9.796;2023-08-17T08:38:23;4.27;;;3.30;;
75818;SDS011;64453;51.944;9.796;2023-08-17T08:40:52;3.80;;;3.50;;
75818;SDS011;64453;51.944;9.796;2023-08-17T08:43:19;4.00;;;3.80;;
75818;SDS011;64453;51.944;9.796;2023-08-17T08:45:46;4.83;;;4.53;;
75818;SDS011;64453;51.944;9.796;2023-08-17T08:48:14;4.40;;;4.10;;
75818;SDS011;64453;51.944;9.796;2023-08-17T08:50:44;4.53;;;4.20;;
75818;SDS011;64453;51.944;9.796;2023-08-17T08:53:13;12.93;;;5.60;;
75818;SDS011;64453;51.944;9.796;2023-08-17T08:55:44;12.40;;;4.37;;
75818;SDS011;64453;51.944;9.796;2023-08-17T08:58:17;4.30;;;3.80;;
75818;SDS011;64453;51.944;9.796;2023-08-17T09:00:45;12.60;;;5.00;;
75818;SDS011;64453;51.944;9.796;2023-08-17T09:03:13;8.65;;;4.47;;
75818;SDS011;64453;51.944;9.796;2023-08-17T09:05:42;5.60;;;3.60;;
75818;SDS011;64453;51.944;9.796;2023-08-17T09:08:15;3.93;;;3.30;;
75818;SDS011;64453;51.944;9.796;2023-08-17T09:10:49;3.90;;;3.50;;
75818;SDS011;64453;51.944;9.796;2023-08-17T09:13:17;12.37;;;3.70;;
75818;SDS011;64453;51.944;9.796;2023-08-17T09:15:54;5.93;;;2.88;;
75818;SDS011;64453;51.944;9.796;2023-08-17T09:18:23;15.43;;;3.70;;
75818;SDS011;64453;51.944;9.796;2023-08-17T09:20:51;22.33;;;6.15;;
75818;SDS011;64453;51.944;9.796;2023-08-17T09:23:19;3.27;;;3.07;;
75818;SDS011;64453;51.944;9.796;2023-08-17T09:26:23;10.83;;;3.00;;
75818;SDS011;64453;51.944;9.796;2023-08-17T09:28:50;2.60;;;2.50;;
75818;SDS011;64453;51.944;9.796;2023-08-17T09:31:19;2.73;;;2.27;;
75818;SDS011;64453;51.944;9.796;2023-08-17T09:33:48;2.87;;;2.70;;
75818;SDS011;64453;51.944;9.796;2023-08-17T09:36:19;2.93;;;2.73;;
75818;SDS011;64453;51.944;9.796;2023-08-17T09:38:47;2.70;;;2.60;;
75818;SDS011;64453;51.944;9.796;2023-08-17T09:41:15;2.50;;;2.40;;
75818;SDS011;64453;51.944;9.796;2023-08-17T09:43:44;1.83;;;1.83;;
75818;SDS011;64453;51.944;9.796;2023-08-17T09:46:12;1.73;;;1.73;;
75818;SDS011;64453;51.944;9.796;2023-08-17T09:48:39;2.20;;;2.10;;
75818;SDS011;64453;51.944;9.796;2023-08-17T09:51:06;1.97;;;1.87;;
75818;SDS011;64453;51.944;9.796;2023-08-17T09:53:34;2.07;;;2.00;;
75818;SDS011;64453;51.944;9.796;2023-08-17T09:56:03;2.55;;;2.35;;
75818;SDS011;64453;51.944;9.796;2023-08-17T09:58:32;5.85;;;2.63;;
75818;SDS011;64453;51.944;9.796;2023-08-17T10:01:01;2.80;;;2.60;;
75818;SDS011;64453;51.944;9.796;2023-08-17T10:03:31;2.30;;;2.20;;
75818;SDS011;64453;51.944;9.796;2023-08-17T10:06:03;2.70;;;2.50;;
75818;SDS011;64453;51.944;9.796;2023-08-17T10:08:33;2.00;;;1.85;;
75818;SDS011;64453;51.944;9.796;2023-08-17T10:11:10;2.93;;;2.73;;
75818;SDS011;64453;51.944;9.796;2023-08-17T10:13:39;5.83;;;2.30;;
75818;SDS011;64453;51.944;9.796;2023-08-17T10:16:17;2.65;;;2.45;;
75818;SDS011;64453;51.944;9.796;2023-08-17T10:18:50;2.67;;;2.43;;
75818;SDS011;64453;51.944;9.796;2023-08-17T10:21:23;2.30;;;2.20;;
75818;SDS011;64453;51.944;9.796;2023-08-17T10:23:54;2.03;;;1.93;;
75818;SDS011;64453;51.944;9.796;2023-08-17T10:26:22;2.30;;;2.10;;
75818;SDS011;64453;51.944;9.796;2023-08-17T10:28:50;1.80;;;1.77;;
75818;SDS011;64453;51.944;9.796;2023-08-17T10:31:20;2.00;;;1.87;;
75818;SDS011;64453;51.944;9.796;2023-08-17T10:33:47;2.07;;;1.97;;
75818;SDS011;64453;51.944;9.796;2023-08-17T10:36:15;1.90;;;1.80;;
75818;SDS011;64453;51.944;9.796;2023-08-17T10:38:43;2.50;;;2.30;;
75818;SDS011;64453;51.944;9.796;2023-08-17T10:41:10;2.57;;;2.37;;
75818;SDS011;64453;51.944;9.796;2023-08-17T10:43:55;2.80;;;2.70;;
75818;SDS011;64453;51.944;9.796;2023-08-17T10:46:34;3.20;;;3.00;;
75818;SDS011;64453;51.944;9.796;2023-08-17T10:49:05;3.05;;;2.72;;
75818;SDS011;64453;51.944;9.796;2023-08-17T10:51:34;2.97;;;2.88;;
75818;SDS011;64453;51.944;9.796;2023-08-17T10:54:02;3.30;;;3.10;;
75818;SDS011;64453;51.944;9.796;2023-08-17T10:56:30;3.20;;;3.00;;
75818;SDS011;64453;51.944;9.796;2023-08-17T10:58:59;2.90;;;2.80;;
75818;SDS011;64453;51.944;9.796;2023-08-17T11:01:35;3.03;;;2.90;;
75818;SDS011;64453;51.944;9.796;2023-08-17T11:04:09;3.77;;;3.40;;
75818;SDS011;64453;51.944;9.796;2023-08-17T11:06:38;2.93;;;2.83;;
75818;SDS011;64453;51.944;9.796;2023-08-17T11:09:06;3.23;;;3.13;;
75818;SDS011;64453;51.944;9.796;2023-08-17T11:11:34;3.33;;;3.13;;
75818;SDS011;64453;51.944;9.796;2023-08-17T11:14:01;3.50;;;3.30;;
75818;SDS011;64453;51.944;9.796;2023-08-17T11:16:29;3.77;;;3.47;;
75818;SDS011;64453;51.944;9.796;2023-08-17T11:18:57;3.80;;;3.60;;
75818;SDS011;64453;51.944;9.796;2023-08-17T11:21:26;4.20;;;3.85;;
75818;SDS011;64453;51.944;9.796;2023-08-17T11:23:55;3.90;;;3.70;;
75818;SDS011;64453;51.944;9.796;2023-08-17T11:26:23;4.20;;;3.90;;
75818;SDS011;64453;51.944;9.796;2023-08-17T11:28:51;4.73;;;4.43;;
75818;SDS011;64453;51.944;9.796;2023-08-17T11:31:18;4.40;;;4.10;;
75818;SDS011;64453;51.944;9.796;2023-08-17T11:33:45;6.60;;;6.00;;
75818;SDS011;64453;51.944;9.796;2023-08-17T11:36:13;5.90;;;5.50;;
75818;SDS011;64453;51.944;9.796;2023-08-17T11:38:41;6.47;;;6.05;;
75818;SDS011;64453;51.944;9.796;2023-08-17T11:41:09;5.80;;;5.40;;
75818;SDS011;64453;51.944;9.796;2023-08-17T11:43:37;5.00;;;4.70;;
75818;SDS011;64453;51.944;9.796;2023-08-17T11:46:04;5.53;;;5.13;;
75818;SDS011;64453;51.944;9.796;2023-08-17T11:48:32;5.32;;;4.93;;
75818;SDS011;64453;51.944;9.796;2023-08-17T11:50:59;4.97;;;4.67;;
75818;SDS011;64453;51.944;9.796;2023-08-17T11:53:34;5.07;;;4.68;;
75818;SDS011;64453;51.944;9.796;2023-08-17T11:56:01;5.00;;;4.70;;
75818;SDS011;64453;51.944;9.796;2023-08-17T11:58:41;4.88;;;4.50;;
75818;SDS011;64453;51.944;9.796;2023-08-17T12:01:09;4.85;;;4.60;;
75818;SDS011;64453;51.944;9.796;2023-08-17T12:03:37;6.88;;;6.35;;
75818;SDS011;64453;51.944;9.796;2023-08-17T12:06:06;5.73;;;5.37;;
75818;SDS011;64453;51.944;9.796;2023-08-17T12:08:34;6.60;;;6.07;;
75818;SDS011;64453;51.944;9.796;2023-08-17T12:11:02;6.68;;;6.18;;
75818;SDS011;64453;51.944;9.796;2023-08-17T12:13:30;6.33;;;5.90;;
75818;SDS011;64453;51.944;9.796;2023-08-17T12:15:59;6.55;;;6.15;;
75818;SDS011;64453;51.944;9.796;2023-08-17T12:18:26;6.83;;;6.33;;
75818;SDS011;64453;51.944;9.796;2023-08-17T12:20:53;7.30;;;6.60;;
75818;SDS011;64453;51.944;9.796;2023-08-17T12:23:21;6.60;;;6.20;;
75818;SDS011;64453;51.944;9.796;2023-08-17T12:25:53;6.53;;;6.03;;
75818;SDS011;64453;51.944;9.796;2023-08-17T12:28:21;7.30;;;6.70;;
75818;SDS011;64453;51.944;9.796;2023-08-17T12:30:55;7.27;;;6.70;;
75818;SDS011;64453;51.944;9.796;2023-08-17T12:33:25;6.40;;;5.90;;
75818;SDS011;64453;51.944;9.796;2023-08-17T12:35:53;6.40;;;5.90;;
75818;SDS011;64453;51.944;9.796;2023-08-17T12:38:21;6.70;;;6.20;;
75818;SDS011;64453;51.944;9.796;2023-08-17T12:40:49;4.60;;;4.20;;
75818;SDS011;64453;51.944;9.796;2023-08-17T12:43:18;5.17;;;4.87;;
75818;SDS011;64453;51.944;9.796;2023-08-17T12:45:45;5.73;;;5.30;;
75818;SDS011;64453;51.944;9.796;2023-08-17T12:48:12;5.43;;;5.13;;
75818;SDS011;64453;51.944;9.796;2023-08-17T12:50:39;6.10;;;5.50;;
75818;SDS011;64453;51.944;9.796;2023-08-17T12:53:06;6.17;;;5.70;;
75818;SDS011;64453;51.944;9.796;2023-08-17T12:55:33;6.17;;;5.67;;
75818;SDS011;64453;51.944;9.796;2023-08-17T12:58:00;5.73;;;5.23;;
75818;SDS011;64453;51.944;9.796;2023-08-17T13:00:29;6.17;;;5.57;;
75818;SDS011;64453;51.944;9.796;2023-08-17T13:02:56;6.60;;;5.90;;
75818;SDS011;64453;51.944;9.796;2023-08-17T13:05:23;8.03;;;7.30;;
75818;SDS011;64453;51.944;9.796;2023-08-17T13:07:50;7.43;;;6.83;;
75818;SDS011;64453;51.944;9.796;2023-08-17T13:10:17;9.87;;;6.90;;
75818;SDS011;64453;51.944;9.796;2023-08-17T13:12:44;7.43;;;6.90;;
75818;SDS011;64453;51.944;9.796;2023-08-17T13:15:12;10.53;;;7.60;;
75818;SDS011;64453;51.944;9.796;2023-08-17T13:17:40;6.80;;;6.20;;
75818;SDS011;64453;51.944;9.796;2023-08-17T13:20:08;7.57;;;6.87;;
75818;SDS011;64453;51.944;9.796;2023-08-17T13:22:36;8.20;;;7.47;;
75818;SDS011;64453;51.944;9.796;2023-08-17T13:25:03;7.57;;;6.77;;
75818;SDS011;64453;51.944;9.796;2023-08-17T13:27:31;8.93;;;8.13;;
75818;SDS011;64453;51.944;9.796;2023-08-17T13:29:59;7.90;;;7.20;;
75818;SDS011;64453;51.944;9.796;2023-08-17T13:32:26;7.70;;;7.10;;
75818;SDS011;64453;51.944;9.796;2023-08-17T13:34:55;8.43;;;7.63;;
75818;SDS011;64453;51.944;9.796;2023-08-17T13:37:22;8.00;;;7.30;;
75818;SDS011;64453;51.944;9.796;2023-08-17T13:39:49;6.70;;;6.20;;
75818;SDS011;64453;51.944;9.796;2023-08-17T13:42:16;7.47;;;6.77;;
75818;SDS011;64453;51.944;9.796;2023-08-17T13:44:43;9.33;;;8.13;;
75818;SDS011;64453;51.944;9.796;2023-08-17T13:47:10;8.63;;;7.93;;
75818;SDS011;64453;51.944;9.796;2023-08-17T13:49:38;8.17;;;7.47;;
75818;SDS011;64453;51.944;9.796;2023-08-17T13:52:06;6.23;;;5.73;;
75818;SDS011;64453;51.944;9.796;2023-08-17T13:54:33;7.10;;;6.40;;
75818;SDS011;64453;51.944;9.796;2023-08-17T13:57:00;8.30;;;7.30;;
75818;SDS011;64453;51.944;9.796;2023-08-17T13:59:27;11.00;;;8.63;;
75818;SDS011;64453;51.944;9.796;2023-08-17T14:01:55;9.20;;;7.50;;
75818;SDS011;64453;51.944;9.796;2023-08-17T14:04:21;8.80;;;8.00;;
75818;SDS011;64453;51.944;9.796;2023-08-17T14:06:48;8.17;;;7.43;;
75818;SDS011;64453;51.944;9.796;2023-08-17T14:09:17;8.47;;;7.70;;
75818;SDS011;64453;51.944;9.796;2023-08-17T14:11:44;8.80;;;8.00;;
75818;SDS011;64453;51.944;9.796;2023-08-17T14:14:11;7.73;;;7.03;;
75818;SDS011;64453;51.944;9.796;2023-08-17T14:16:38;9.17;;;7.40;;
75818;SDS011;64453;51.944;9.796;2023-08-17T14:19:05;6.40;;;5.80;;
75818;SDS011;64453;51.944;9.796;2023-08-17T14:21:32;10.10;;;7.60;;
75818;SDS011;64453;51.944;9.796;2023-08-17T14:23:59;10.00;;;7.57;;
75818;SDS011;64453;51.944;9.796;2023-08-17T14:26:27;7.73;;;6.93;;
75818;SDS011;64453;51.944;9.796;2023-08-17T14:28:54;10.30;;;7.37;;
75818;SDS011;64453;51.944;9.796;2023-08-17T14:31:22;8.50;;;7.63;;
75818;SDS011;64453;51.944;9.796;2023-08-17T14:33:48;12.03;;;7.67;;
75818;SDS011;64453;51.944;9.796;2023-08-17T14:36:16;9.87;;;8.47;;
75818;SDS011;64453;51.944;9.796;2023-08-17T14:38:43;10.03;;;8.30;;
75818;SDS011;64453;51.944;9.796;2023-08-17T14:41:10;12.10;;;9.23;;
75818;SDS011;64453;51.944;9.796;2023-08-17T14:43:38;11.63;;;8.37;;
75818;SDS011;64453;51.944;9.796;2023-08-17T14:46:05;12.10;;;7.40;;
75818;SDS011;64453;51.944;9.796;2023-08-17T14:48:32;8.73;;;7.47;;
75818;SDS011;64453;51.944;9.796;2023-08-17T14:50:59;10.17;;;7.30;;